Time;durP1;ratioP1;P1;durP2;ratioP2;P2;SDS_P1;SDS_P2;PMS_P1;PMS_P2;Temp;Humidity;BMP_temperature;BMP_pressure;BME280_temperature;BME280_humidity;BME280_pressure;Samples;Min_cycle;Max_cycle;Signal;HPM_P1;HPM_P2
2022/07/15 00:02:08;;;;;;;6.38;2.30;;;20.80;75.70;;;;;;6222832;23;20030;-81
2022/07/15 00:04:37;;;;;;;4.72;2.70;;;21.90;76.40;;;;;;6196079;23;20032;-82
2022/07/15 00:07:04;;;;;;;8.45;3.28;;;20.60;75.90;;;;;;6223653;23;20008;-81
2022/07/15 00:12:13;;;;;;;8.18;2.60;;;20.50;75.70;;;;;;6222858;23;20016;-81
2022/07/15 00:14:39;;;;;;;7.45;2.90;;;20.40;75.80;;;;;;6222126;23;20474;-82
2022/07/15 00:17:07;;;;;;;7.50;3.10;;;19.80;76.40;;;;;;6222537;23;20385;-82
2022/07/15 00:19:36;;;;;;;6.85;2.60;;;20.40;75.60;;;;;;6197880;23;20011;-81
2022/07/15 00:22:02;;;;;;;4.70;2.57;;;19.50;75.80;;;;;;6227291;23;20001;-82
2022/07/15 00:24:29;;;;;;;6.57;2.80;;;20.30;77.60;;;;;;6228430;23;20051;-82
2022/07/15 00:26:56;;;;;;;6.22;2.60;;;20.20;76.80;;;;;;6230707;23;19993;-82
2022/07/15 00:29:22;;;;;;;5.97;3.00;;;19.90;76.50;;;;;;6204381;23;20004;-81
2022/07/15 00:31:48;;;;;;;4.60;2.35;;;20.20;77.90;;;;;;6230363;23;20471;-82
2022/07/15 00:34:13;;;;;;;4.03;2.53;;;20.10;78.00;;;;;;6229183;23;20111;-82
2022/07/15 00:36:39;;;;;;;7.72;2.70;;;20.10;78.20;;;;;;6230118;23;20012;-82
2022/07/15 00:39:06;;;;;;;5.03;2.50;;;19.90;77.60;;;;;;6230123;23;20064;-82
2022/07/15 00:41:39;;;;;;;5.03;2.25;;;20.20;78.30;;;;;;6227891;23;20012;-82
2022/07/15 00:44:06;;;;;;;6.80;2.67;;;19.90;76.90;;;;;;6229508;23;20016;-82
2022/07/15 00:46:32;;;;;;;7.13;2.60;;;19.80;77.40;;;;;;6202803;23;20000;-82
2022/07/15 00:48:59;;;;;;;5.25;2.60;;;19.80;78.00;;;;;;6227651;23;20013;-82
2022/07/15 00:51:25;;;;;;;7.88;2.50;;;19.80;77.80;;;;;;6227019;23;20446;-82
2022/07/15 00:53:54;;;;;;;10.98;2.85;;;19.90;79.20;;;;;;6226745;23;20031;-82
2022/07/15 00:56:23;;;;;;;6.10;2.90;;;19.70;77.80;;;;;;6230471;23;20058;-83
2022/07/15 00:58:51;;;;;;;6.55;2.80;;;19.70;78.50;;;;;;6230135;23;20084;-82
2022/07/15 01:01:20;;;;;;;4.82;2.28;;;19.60;78.20;;;;;;6234324;23;20429;-83
2022/07/15 01:03:51;;;;;;;5.90;2.38;;;19.70;78.30;;;;;;6226220;23;19997;-82
2022/07/15 01:06:17;;;;;;;7.00;2.60;;;19.50;78.30;;;;;;6198650;23;20020;-83
2022/07/15 01:08:42;;;;;;;4.88;2.60;;;19.90;78.60;;;;;;6197007;23;20051;-81
2022/07/15 01:11:08;;;;;;;3.75;2.03;;;19.60;78.40;;;;;;6197909;23;20012;-82
2022/07/15 01:13:37;;;;;;;6.80;2.70;;;19.40;79.80;;;;;;6174060;23;20034;-81
2022/07/15 01:16:04;;;;;;;6.57;2.17;;;20.20;79.90;;;;;;6198508;23;20009;-80
2022/07/15 01:18:29;;;;;;;5.38;2.58;;;19.40;79.20;;;;;;6224736;23;20022;-81
2022/07/15 01:20:55;;;;;;;4.80;2.20;;;19.20;80.20;;;;;;6220985;23;20005;-81
2022/07/15 01:23:21;;;;;;;4.05;2.08;;;19.20;80.20;;;;;;6223881;23;20003;-81
2022/07/15 01:25:48;;;;;;;6.38;2.35;;;19.20;80.00;;;;;;6226098;23;20042;-83
2022/07/15 01:28:14;;;;;;;4.90;2.35;;;19.20;79.50;;;;;;6199703;23;20001;-82
2022/07/15 01:30:40;;;;;;;5.13;2.35;;;19.10;80.80;;;;;;6224560;23;20017;-82
2022/07/15 01:33:06;;;;;;;5.40;2.35;;;19.00;81.10;;;;;;6224805;23;20052;-81
2022/07/15 01:35:31;;;;;;;4.68;2.45;;;19.10;81.90;;;;;;6223217;23;20016;-82
2022/07/15 01:37:57;;;;;;;5.70;2.60;;;19.00;82.10;;;;;;6197885;23;20032;-83
2022/07/15 01:40:23;;;;;;;9.18;2.90;;;19.00;82.20;;;;;;6220476;23;20441;-82
2022/07/15 01:42:48;;;;;;;6.38;2.40;;;19.00;81.60;;;;;;6221712;23;20005;-83
2022/07/15 01:45:15;;;;;;;7.32;2.70;;;18.90;82.30;;;;;;6195487;23;20046;-83
2022/07/15 01:47:48;;;;;;;4.25;2.50;;;18.90;84.30;;;;;;6224392;23;20001;-82
2022/07/15 01:50:15;;;;;;;5.15;2.80;;;18.80;82.00;;;;;;6198392;23;20427;-82
2022/07/15 01:52:41;;;;;;;5.50;2.67;;;18.80;81.90;;;;;;6227621;23;20009;-83
2022/07/15 01:55:08;;;;;;;6.13;2.63;;;18.80;81.80;;;;;;6199575;23;20047;-82
2022/07/15 01:57:34;;;;;;;5.32;2.80;;;18.70;82.40;;;;;;6198379;23;20028;-82
2022/07/15 02:00:00;;;;;;;6.75;2.83;;;19.00;83.80;;;;;;6225863;23;20032;-82
2022/07/15 02:02:26;;;;;;;11.27;2.80;;;18.70;84.10;;;;;;6227743;23;20050;-83
2022/07/15 02:04:52;;;;;;;5.13;2.80;;;18.70;84.00;;;;;;6230919;23;20047;-83
2022/07/15 02:07:18;;;;;;;7.97;3.00;;;18.60;84.10;;;;;;6199063;23;20088;-83
2022/07/15 02:09:44;;;;;;;4.93;2.55;;;18.50;84.80;;;;;;6198454;23;20005;-83
2022/07/15 02:12:10;;;;;;;6.53;2.78;;;18.50;84.30;;;;;;6224868;23;20017;-83
2022/07/15 02:14:36;;;;;;;6.50;2.80;;;;;;;;;;6198758;23;20008;-82
2022/07/15 02:17:02;;;;;;;4.45;2.53;;;;;;;;;;6225177;23;20008;-82
2022/07/15 02:19:28;;;;;;;4.65;2.70;;;18.70;82.40;;;;;;6197471;23;20333;-82
2022/07/15 02:21:54;;;;;;;6.82;2.63;;;16.70;83.50;;;;;;6198686;23;20031;-82
2022/07/15 02:24:20;;;;;;;5.72;2.50;;;18.60;84.30;;;;;;6222680;23;20004;-81
2022/07/15 02:26:48;;;;;;;5.57;2.63;;;20.70;85.30;;;;;;6223750;23;20005;-81
2022/07/15 02:29:14;;;;;;;6.65;3.38;;;16.30;82.90;;;;;;6198184;23;19997;-80
2022/07/15 02:31:40;;;;;;;6.45;2.70;;;;;;;;;;6198673;23;20016;-82
2022/07/15 02:34:08;;;;;;;5.40;2.35;;;18.50;82.90;;;;;;6198017;23;20368;-83
2022/07/15 02:36:34;;;;;;;5.90;2.67;;;18.40;83.70;;;;;;6174217;23;20087;-82
2022/07/15 02:38:59;;;;;;;7.50;2.75;;;18.40;84.80;;;;;;6197282;23;20013;-82
2022/07/15 02:41:25;;;;;;;6.90;2.83;;;18.40;85.40;;;;;;6222245;23;20013;-82
2022/07/15 02:43:51;;;;;;;6.03;2.65;;;18.40;85.10;;;;;;6196882;23;20008;-82
2022/07/15 02:46:17;;;;;;;6.18;2.63;;;18.30;85.80;;;;;;6198380;23;20001;-82
2022/07/15 02:48:43;;;;;;;6.20;3.05;;;18.20;85.60;;;;;;6221596;23;20005;-83
2022/07/15 02:51:09;;;;;;;6.13;2.42;;;16.50;85.20;;;;;;6221651;23;20456;-82
2022/07/15 02:53:35;;;;;;;5.57;2.85;;;18.10;86.00;;;;;;6221709;23;20083;-81
2022/07/15 02:56:02;;;;;;;6.25;2.63;;;18.10;85.90;;;;;;6195618;23;20004;-82
2022/07/15 02:58:30;;;;;;;7.10;2.80;;;17.00;85.70;;;;;;6196710;23;20091;-82
2022/07/15 03:00:56;;;;;;;5.18;2.80;;;18.10;85.20;;;;;;6225047;23;20328;-82
2022/07/15 03:03:23;;;;;;;8.13;2.55;;;;;;;;;;6203044;23;20001;-82
2022/07/15 03:05:49;;;;;;;5.90;2.70;;;18.10;85.00;;;;;;6203561;23;20027;-82
2022/07/15 03:08:16;;;;;;;5.97;2.63;;;18.00;85.40;;;;;;6195575;23;20464;-82
2022/07/15 03:10:42;;;;;;;4.93;2.45;;;17.90;86.40;;;;;;6195176;23;20088;-82
2022/07/15 03:13:08;;;;;;;6.57;2.55;;;17.90;87.20;;;;;;6222048;23;20071;-82
2022/07/15 03:15:34;;;;;;;4.85;2.50;;;17.90;87.20;;;;;;6222081;23;20004;-82
2022/07/15 03:18:00;;;;;;;6.35;2.72;;;;;;;;;;6221093;23;20433;-82
2022/07/15 03:20:26;;;;;;;5.25;2.42;;;;;;;;;;6193573;23;20009;-82
2022/07/15 03:22:52;;;;;;;7.20;2.75;;;17.90;86.00;;;;;;6195037;23;20020;-83
2022/07/15 03:25:18;;;;;;;4.38;2.72;;;;;;;;;;6221808;23;20008;-82
2022/07/15 03:27:44;;;;;;;4.30;2.65;;;17.80;86.30;;;;;;6221212;23;20047;-82
2022/07/15 03:30:10;;;;;;;6.13;2.70;;;17.60;88.40;;;;;;6221153;23;20012;-80
2022/07/15 03:32:36;;;;;;;8.40;3.20;;;;;;;;;;6195307;23;20383;-82
2022/07/15 03:35:02;;;;;;;7.60;3.28;;;17.80;86.40;;;;;;6221950;23;20001;-82
2022/07/15 03:37:28;;;;;;;5.90;3.03;;;17.80;88.60;;;;;;6222358;23;19996;-83
2022/07/15 03:39:53;;;;;;;6.57;2.80;;;18.70;89.60;;;;;;6220692;23;20031;-83
2022/07/15 03:42:19;;;;;;;4.90;2.80;;;16.90;88.60;;;;;;6219882;23;20024;-82
2022/07/15 03:44:46;;;;;;;9.50;3.28;;;17.60;88.20;;;;;;6222098;23;20001;-83
2022/07/15 03:47:13;;;;;;;8.40;2.97;;;17.70;87.60;;;;;;6195469;23;19996;-82
2022/07/15 03:49:39;;;;;;;12.07;4.05;;;17.70;87.70;;;;;;6221839;23;20499;-83
2022/07/15 03:52:06;;;;;;;17.02;4.55;;;17.70;88.70;;;;;;6223640;23;20004;-83
2022/07/15 03:54:32;;;;;;;10.88;4.20;;;17.70;89.30;;;;;;6222718;23;20008;-83
2022/07/15 03:56:58;;;;;;;10.82;3.90;;;17.70;88.50;;;;;;6223867;23;20005;-83
2022/07/15 03:59:24;;;;;;;9.45;3.83;;;17.80;88.80;;;;;;6223088;23;20012;-83
2022/07/15 04:01:52;;;;;;;11.25;4.05;;;17.80;89.50;;;;;;6200938;23;20012;-84
2022/07/15 04:04:18;;;;;;;14.05;3.92;;;17.50;88.60;;;;;;6201752;23;20017;-84
2022/07/15 04:07:06;;;;;;;10.63;4.13;;;17.60;89.10;;;;;;6227955;23;19997;-82
2022/07/15 04:09:36;;;;;;;7.57;3.90;;;17.60;88.30;;;;;;6200956;23;20027;-82
2022/07/15 04:12:02;;;;;;;12.10;4.03;;;17.10;88.00;;;;;;6200493;23;20021;-83
2022/07/15 04:14:30;;;;;;;9.75;4.63;;;17.70;88.90;;;;;;6227812;23;20005;-82
2022/07/15 04:16:56;;;;;;;8.20;3.80;;;17.70;89.50;;;;;;6226034;23;20004;-83
2022/07/15 04:19:22;;;;;;;11.68;4.60;;;17.80;89.40;;;;;;6200708;23;20063;-82
2022/07/15 04:21:48;;;;;;;11.70;4.65;;;19.60;90.80;;;;;;6226802;23;20000;-83
2022/07/15 04:24:21;;;;;;;8.20;4.53;;;17.70;88.50;;;;;;6229167;23;20443;-82
2022/07/15 04:26:48;;;;;;;10.00;4.20;;;17.80;88.10;;;;;;6199687;23;20005;-84
2022/07/15 04:29:14;;;;;;;13.90;4.75;;;18.60;89.10;;;;;;6226037;23;20027;-83
2022/07/15 04:31:40;;;;;;;9.57;4.28;;;17.80;89.50;;;;;;6198944;23;20017;-82
2022/07/15 04:34:06;;;;;;;8.63;4.05;;;17.80;88.80;;;;;;6225505;23;20441;-82
2022/07/15 04:36:32;;;;;;;6.47;3.58;;;18.00;89.20;;;;;;6199859;23;20000;-83
2022/07/15 04:38:58;;;;;;;6.70;3.22;;;18.50;88.00;;;;;;6175413;23;20008;-83
2022/07/15 04:41:23;;;;;;;7.57;2.67;;;18.00;87.90;;;;;;6225885;23;20008;-83
2022/07/15 04:43:50;;;;;;;5.50;2.95;;;18.20;86.20;;;;;;6223978;23;20005;-83
2022/07/15 04:46:16;;;;;;;8.30;2.92;;;18.40;86.50;;;;;;6226527;23;20004;-81
2022/07/15 04:51:28;;;;;;;10.25;2.88;;;18.20;85.30;;;;;;6204185;23;20070;-83
2022/07/15 04:53:53;;;;;;;5.72;2.60;;;20.10;85.80;;;;;;6201149;23;20012;-83
2022/07/15 04:56:19;;;;;;;8.68;3.20;;;18.20;85.60;;;;;;6230625;23;20001;-81
2022/07/15 04:58:45;;;;;;;7.78;2.90;;;18.10;85.10;;;;;;6227491;23;20009;-83
2022/07/15 05:01:12;;;;;;;9.10;3.25;;;18.30;85.30;;;;;;6225499;23;20032;-81
2022/07/15 05:03:37;;;;;;;6.93;2.95;;;18.20;84.90;;;;;;6227535;23;20004;-83
2022/07/15 05:06:03;;;;;;;6.65;3.05;;;19.90;86.70;;;;;;6202033;23;20069;-83
2022/07/15 05:08:29;;;;;;;8.48;2.75;;;18.20;86.00;;;;;;6234786;23;20001;-83
2022/07/15 05:10:55;;;;;;;7.53;2.70;;;17.40;84.30;;;;;;6207091;23;20015;-84
2022/07/15 05:13:21;;;;;;;6.63;2.60;;;18.50;85.70;;;;;;6230930;23;20444;-82
2022/07/15 05:15:48;;;;;;;5.15;2.45;;;18.30;85.50;;;;;;6232047;23;20001;-83
2022/07/15 05:18:14;;;;;;;7.80;2.83;;;18.50;85.70;;;;;;6233088;23;20004;-83
2022/07/15 05:20:39;;;;;;;7.85;2.30;;;18.50;85.50;;;;;;6205240;23;20135;-84
2022/07/15 05:23:05;;;;;;;4.82;2.67;;;18.70;84.40;;;;;;6235452;23;19996;-84
2022/07/15 05:25:32;;;;;;;6.00;2.50;;;18.80;84.90;;;;;;6234896;23;20020;-83
2022/07/15 05:27:58;;;;;;;7.05;2.72;;;18.80;82.90;;;;;;6232628;23;20083;-84
2022/07/15 05:30:24;;;;;;;6.85;2.42;;;18.90;83.50;;;;;;6230606;23;20431;-82
2022/07/15 05:32:50;;;;;;;6.28;2.40;;;19.40;83.30;;;;;;6203660;23;20008;-82
2022/07/15 05:39:28;;;;;;;5.05;1.95;;;22.60;76.10;;;;;;6169231;23;20109;-83
2022/07/15 05:42:11;;;;;;;4.05;1.98;;;22.40;71.90;;;;;;6166200;23;20021;-83
2022/07/15 05:45:08;;;;;;;7.75;2.30;;;22.50;71.80;;;;;;6164700;23;20005;-83
2022/07/15 05:47:55;;;;;;;5.38;2.10;;;22.50;71.30;;;;;;6142238;23;20006;-82
2022/07/15 05:50:21;;;;;;;6.57;1.92;;;22.50;71.60;;;;;;6163341;23;20010;-84
2022/07/15 05:52:47;;;;;;;7.35;1.75;;;22.80;71.10;;;;;;6163906;23;20064;-82
2022/07/15 05:55:33;;;;;;;4.78;1.98;;;22.90;71.50;;;;;;6163750;23;20541;-81
2022/07/15 05:58:12;;;;;;;4.07;2.00;;;23.20;69.70;;;;;;6165310;23;20005;-81
2022/07/15 06:00:40;;;;;;;3.50;1.73;;;23.40;69.10;;;;;;6138615;23;20010;-81
2022/07/15 06:03:14;;;;;;;3.47;1.55;;;23.60;69.30;;;;;;6161116;23;20053;-82
2022/07/15 06:06:07;;;;;;;6.45;2.60;;;22.20;68.10;;;;;;6162642;23;20006;-83
2022/07/15 06:09:09;;;;;;;5.78;2.22;;;24.10;67.80;;;;;;6131935;23;20000;-81
2022/07/15 06:11:35;;;;;;;5.75;2.00;;;24.50;67.50;;;;;;6200902;23;20437;-81
2022/07/15 06:14:03;;;;;;;7.32;2.13;;;24.50;67.20;;;;;;6229602;23;20036;-80
2022/07/15 06:16:33;;;;;;;9.23;1.80;;;24.10;67.20;;;;;;6202666;23;20039;-81
2022/07/15 06:19:08;;;;;;;8.45;1.77;;;24.10;67.90;;;;;;6224207;23;20441;-81
2022/07/15 06:22:25;;;;;;;6.30;2.13;;;23.90;67.60;;;;;;6225478;23;20008;-81
2022/07/15 06:24:51;;;;;;;6.55;1.83;;;23.70;68.20;;;;;;6226931;23;20000;-79
2022/07/15 06:27:18;;;;;;;6.18;2.13;;;23.20;70.30;;;;;;6199605;23;20019;-80
2022/07/15 06:29:44;;;;;;;3.78;1.55;;;23.30;70.00;;;;;;6227804;23;20027;-79
2022/07/15 06:32:11;;;;;;;13.43;4.90;;;23.60;69.20;;;;;;6226682;23;20001;-81
2022/07/15 06:34:45;;;;;;;5.03;1.83;;;24.00;68.30;;;;;;6198723;23;20005;-81
2022/07/15 06:37:11;;;;;;;6.18;1.60;;;23.60;68.30;;;;;;6175085;23;20039;-82
2022/07/15 06:39:37;;;;;;;7.75;1.60;;;21.90;69.10;;;;;;6174351;23;20034;-80
2022/07/15 06:42:03;;;;;;;8.68;1.85;;;22.90;71.20;;;;;;6226598;23;20428;-81
2022/07/15 06:44:37;;;;;;;6.60;1.98;;;22.60;70.90;;;;;;6203670;23;20012;-81
2022/07/15 06:47:03;;;;;;;7.25;2.60;;;22.40;71.60;;;;;;6205361;23;20019;-80
2022/07/15 06:49:31;;;;;;;5.70;2.10;;;22.50;72.20;;;;;;6238587;23;20040;-82
2022/07/15 06:51:58;;;;;;;4.35;2.30;;;22.70;72.00;;;;;;6200506;23;20005;-80
2022/07/15 06:54:25;;;;;;;6.18;1.75;;;22.60;72.50;;;;;;6228183;23;20349;-79
2022/07/15 06:56:51;;;;;;;4.07;1.98;;;22.50;72.70;;;;;;6225918;23;20329;-81
2022/07/15 06:59:17;;;;;;;7.65;2.03;;;20.60;72.50;;;;;;6227301;23;20031;-81
2022/07/15 07:01:42;;;;;;;5.03;1.70;;;22.70;74.80;;;;;;6200815;23;20015;-81
2022/07/15 07:04:08;;;;;;;3.28;1.67;;;22.40;73.70;;;;;;6226703;23;20004;-82
2022/07/15 07:06:34;;;;;;;6.72;1.83;;;22.10;74.20;;;;;;6223941;23;19996;-81
2022/07/15 07:09:00;;;;;;;4.93;2.10;;;22.00;73.90;;;;;;6199767;23;20020;-82
2022/07/15 07:11:26;;;;;;;7.18;2.00;;;22.00;73.50;;;;;;6201286;23;20008;-81
2022/07/15 07:13:52;;;;;;;6.22;1.95;;;22.20;73.50;;;;;;6199318;23;20452;-83
2022/07/15 07:16:18;;;;;;;6.18;3.50;;;22.80;73.00;;;;;;6205664;23;19996;-85
2022/07/15 07:18:50;;;;;;;5.57;1.90;;;22.00;73.00;;;;;;6241103;23;20000;-83
2022/07/15 07:21:16;;;;;;;4.68;1.75;;;22.00;72.30;;;;;;6236538;23;20005;-83
2022/07/15 07:23:44;;;;;;;5.15;1.70;;;22.20;72.80;;;;;;6232730;23;20001;-81
2022/07/15 07:26:12;;;;;;;5.57;1.63;;;21.70;72.30;;;;;;6231698;23;20027;-81
2022/07/15 07:28:40;;;;;;;5.00;2.10;;;22.20;71.70;;;;;;6203909;23;20024;-82
2022/07/15 07:31:12;;;;;;;5.78;2.15;;;22.40;72.00;;;;;;6203389;23;20004;-82
2022/07/15 07:33:41;;;;;;;7.10;2.00;;;22.40;71.40;;;;;;6231803;23;20008;-81
2022/07/15 07:36:08;;;;;;;4.10;1.60;;;22.70;71.40;;;;;;6181908;23;20361;-82
2022/07/15 07:38:35;;;;;;;158.73;17.63;;;23.80;73.00;;;;;;6230589;23;20376;-82
2022/07/15 07:41:04;;;;;;;8.05;2.00;;;22.50;71.60;;;;;;6204040;23;20016;-82
2022/07/15 07:43:31;;;;;;;5.50;1.73;;;22.60;71.60;;;;;;6204448;23;20023;-82
2022/07/15 07:45:57;;;;;;;6.88;1.80;;;22.30;70.30;;;;;;6202933;23;19992;-81
2022/07/15 07:48:24;;;;;;;5.65;1.85;;;24.50;71.80;;;;;;6200778;23;20004;-81
2022/07/15 07:50:53;;;;;;;7.10;1.70;;;22.70;70.10;;;;;;6232623;23;19988;-83
2022/07/15 07:53:24;;;;;;;6.93;1.70;;;21.10;70.80;;;;;;6209764;23;20004;-83
2022/07/15 07:56:10;;;;;;;9.52;1.83;;;22.70;70.50;;;;;;6217022;23;20067;-88
2022/07/15 07:58:39;;;;;;;7.05;2.08;;;22.70;71.40;;;;;;6210567;23;20020;-81
2022/07/15 08:01:05;;;;;;;5.05;1.88;;;22.90;71.10;;;;;;6226343;23;20032;-81
2022/07/15 08:03:32;;;;;;;6.88;1.55;;;22.30;70.90;;;;;;6199358;23;20043;-82
2022/07/15 08:06:04;;;;;;;4.05;1.70;;;23.10;71.00;;;;;;6227220;23;20058;-82
2022/07/15 08:08:31;;;;;;;7.28;1.83;;;23.20;70.40;;;;;;6203454;23;20000;-82
2022/07/15 08:11:00;;;;;;;6.82;1.77;;;23.40;69.60;;;;;;6229410;23;20001;-82
2022/07/15 08:13:29;;;;;;;4.77;2.10;;;23.40;68.20;;;;;;6227955;23;20008;-82
2022/07/15 08:15:57;;;;;;;4.50;1.75;;;23.40;69.70;;;;;;6201137;23;20019;-82
2022/07/15 08:18:29;;;;;;;7.10;2.22;;;23.60;68.70;;;;;;6200924;23;20004;-82
2022/07/15 08:20:58;;;;;;;5.85;1.90;;;23.80;69.60;;;;;;6203537;23;20020;-81
2022/07/15 08:23:26;;;;;;;4.30;1.70;;;22.80;69.00;;;;;;6230667;23;20069;-81
2022/07/15 08:26:01;;;;;;;2.88;1.42;;;23.60;69.00;;;;;;6231689;23;20011;-80
2022/07/15 08:28:28;;;;;;;7.60;2.10;;;23.70;69.20;;;;;;6227840;23;20024;-81
2022/07/15 08:30:57;;;;;;;5.57;1.95;;;25.70;68.60;;;;;;6203911;23;20020;-81
2022/07/15 08:33:24;;;;;;;3.83;1.83;;;23.50;67.70;;;;;;6200295;23;20016;-81
2022/07/15 08:35:53;;;;;;;5.32;1.90;;;23.50;67.90;;;;;;6202855;23;20391;-80
2022/07/15 08:38:23;;;;;;;6.88;2.05;;;23.70;68.30;;;;;;6201645;23;20032;-82
2022/07/15 08:40:50;;;;;;;;;;;22.40;67.50;;;;;;6200816;23;20005;-81
2022/07/15 08:43:18;;;;;;;5.03;1.80;;;23.80;68.20;;;;;;6225459;23;19912;-82
2022/07/15 08:45:46;;;;;;;5.25;2.05;;;24.00;67.60;;;;;;6224069;23;20498;-82
2022/07/15 08:48:14;;;;;;;5.30;2.05;;;24.10;66.70;;;;;;6198191;23;20031;-82
2022/07/15 08:50:43;;;;;;;5.00;1.88;;;24.20;65.50;;;;;;6224218;23;20000;-81
2022/07/15 08:53:12;;;;;;;4.55;1.90;;;24.10;64.50;;;;;;6226571;23;20060;-81
2022/07/15 08:55:39;;;;;;;4.63;1.93;;;23.20;65.00;;;;;;6225966;23;20060;-81
2022/07/15 08:58:07;;;;;;;7.07;1.80;;;22.50;65.80;;;;;;6202689;23;20015;-81
2022/07/15 09:00:35;;;;;;;6.63;2.30;;;23.30;64.20;;;;;;6226800;23;20020;-82
2022/07/15 09:03:08;;;;;;;4.40;1.70;;;24.30;64.20;;;;;;6199013;23;20000;-82
2022/07/15 09:05:37;;;;;;;5.07;1.85;;;23.50;64.50;;;;;;6199976;23;20382;-81
2022/07/15 09:08:18;;;;;;;5.82;1.98;;;24.40;64.60;;;;;;6225929;23;20000;-82
2022/07/15 09:10:58;;;;;;;4.53;2.10;;;24.40;64.10;;;;;;6227915;23;20008;-81
2022/07/15 09:13:40;;;;;;;4.88;1.92;;;24.20;64.00;;;;;;6225071;23;20019;-82
2022/07/15 09:16:19;;;;;;;6.15;2.00;;;24.60;63.60;;;;;;6203167;23;20004;-83
2022/07/15 09:18:49;;;;;;;6.15;2.20;;;24.40;62.80;;;;;;6204046;23;20301;-82
2022/07/15 09:21:21;;;;;;;6.22;2.58;;;24.40;63.70;;;;;;6201297;23;20009;-83
2022/07/15 09:23:50;;;;;;;8.23;2.25;;;24.50;64.00;;;;;;6202665;23;20008;-82
2022/07/15 09:26:26;;;;;;;6.22;1.90;;;24.40;64.10;;;;;;6203013;23;20458;-82
2022/07/15 09:28:57;;;;;;;10.07;2.63;;;24.70;63.60;;;;;;6220510;23;20000;-83
2022/07/15 09:34:31;;;;;;;6.28;1.90;;;25.10;63.60;;;;;;6228127;23;20075;-83
2022/07/15 09:37:05;;;;;;;4.78;1.90;;;23.90;63.10;;;;;;6179862;23;20431;-83
2022/07/15 09:39:52;;;;;;;5.53;1.80;;;23.90;62.30;;;;;;6230984;23;20012;-83
2022/07/15 09:42:28;;;;;;;5.60;2.03;;;24.10;63.10;;;;;;6233717;23;20009;-83
2022/07/15 09:44:55;;;;;;;3.95;2.00;;;25.50;62.70;;;;;;6206338;23;20424;-84
2022/07/15 09:47:34;;;;;;;7.45;2.30;;;25.30;63.00;;;;;;6206825;23;19997;-83
2022/07/15 09:50:06;;;;;;;8.90;2.17;;;23.60;62.50;;;;;;6209341;23;20008;-83
2022/07/15 09:52:49;;;;;;;5.60;2.05;;;25.10;62.00;;;;;;6240305;23;20020;-84
2022/07/15 09:55:24;;;;;;;6.10;1.92;;;25.10;63.40;;;;;;6216549;23;20012;-82
2022/07/15 09:57:55;;;;;;;8.68;2.63;;;25.60;61.20;;;;;;6205149;23;20035;-82
2022/07/15 10:00:23;;;;;;;5.38;2.10;;;25.90;60.80;;;;;;6227682;23;20012;-82
2022/07/15 10:03:09;;;;;;;6.63;3.50;;;26.00;61.60;;;;;;6200961;23;20004;-82
2022/07/15 10:05:46;;;;;;;6.93;2.47;;;26.00;59.60;;;;;;6201435;23;20009;-81
2022/07/15 10:08:17;;;;;;;5.07;1.85;;;25.50;59.60;;;;;;6230515;23;20336;-82
2022/07/15 10:10:51;;;;;;;5.55;2.25;;;26.00;59.60;;;;;;6205262;23;20012;-81
2022/07/15 10:13:34;;;;;;;4.97;2.50;;;26.10;60.20;;;;;;6203344;23;20056;-82
2022/07/15 10:16:24;;;;;;;4.38;1.88;;;25.50;60.10;;;;;;6203475;23;20379;-81
2022/07/15 10:19:08;;;;;;;3.88;1.80;;;25.40;60.80;;;;;;6203374;23;20477;-82
2022/07/15 10:21:43;;;;;;;2.95;1.95;;;25.40;60.90;;;;;;6230456;23;20045;-82
2022/07/15 10:24:26;;;;;;;5.53;2.08;;;25.30;59.40;;;;;;6227592;23;20009;-82
2022/07/15 10:27:19;;;;;;;3.88;2.00;;;25.50;59.20;;;;;;6228559;23;20000;-81
2022/07/15 10:29:55;;;;;;;4.68;2.10;;;25.80;59.00;;;;;;6227648;23;20004;-82
2022/07/15 10:32:22;;;;;;;8.60;2.28;;;26.30;58.10;;;;;;6203586;23;20004;-82
2022/07/15 10:34:56;;;;;;;4.60;2.08;;;26.10;58.70;;;;;;6204710;23;20028;-82
2022/07/15 10:37:27;;;;;;;6.57;2.95;;;26.40;57.10;;;;;;6204549;23;20016;-82
2022/07/15 10:40:08;;;;;;;4.07;2.30;;;26.40;56.20;;;;;;6230067;23;20012;-81
2022/07/15 10:43:10;;;;;;;6.43;2.22;;;26.30;57.50;;;;;;6229647;23;20060;-82
2022/07/15 10:46:26;;;;;;;7.80;2.05;;;25.80;57.70;;;;;;6169744;23;20021;-82
2022/07/15 10:48:58;;;;;;;6.18;2.40;;;26.00;58.00;;;;;;6183622;23;20064;-80
2022/07/15 10:51:37;;;;;;;7.40;2.47;;;25.60;58.50;;;;;;6210627;23;20053;-81
2022/07/15 10:54:21;;;;;;;3.83;2.25;;;25.80;57.10;;;;;;6211238;23;20011;-82
2022/07/15 10:56:53;;;;;;;6.68;2.00;;;25.50;56.70;;;;;;6237126;23;20036;-81
2022/07/15 10:59:23;;;;;;;3.75;1.88;;;25.70;56.10;;;;;;6212794;23;20012;-81
2022/07/15 11:02:02;;;;;;;4.78;2.10;;;26.00;55.70;;;;;;6241592;23;20075;-82
2022/07/15 11:04:31;;;;;;;3.67;1.98;;;26.40;55.10;;;;;;6241555;23;20254;-81
2022/07/15 11:07:10;;;;;;;6.35;2.95;;;26.30;55.30;;;;;;6216246;23;19992;-81
2022/07/15 11:09:56;;;;;;;3.88;2.42;;;26.40;56.10;;;;;;6216954;23;20005;-83
2022/07/15 11:12:24;;;;;;;4.95;3.08;;;26.10;56.70;;;;;;6241648;23;20023;-82
2022/07/15 11:14:59;;;;;;;4.63;1.90;;;25.20;56.30;;;;;;6237102;23;20005;-82
2022/07/15 11:17:28;;;;;;;4.93;2.40;;;25.60;57.70;;;;;;6211925;23;20016;-81
2022/07/15 11:20:06;;;;;;;4.60;1.92;;;25.50;57.90;;;;;;6234118;23;20004;-82
2022/07/15 11:23:00;;;;;;;5.20;2.17;;;25.90;57.20;;;;;;6233647;23;20009;-82
2022/07/15 11:26:32;;;;;;;6.38;2.00;;;25.80;56.30;;;;;;6232856;23;20001;-82
2022/07/15 11:28:58;;;;;;;5.20;2.00;;;25.40;56.30;;;;;;6229231;23;20035;-81
2022/07/15 11:31:25;;;;;;;3.63;2.08;;;25.10;56.60;;;;;;6212088;23;20015;-82
2022/07/15 11:33:56;;;;;;;7.97;2.70;;;25.60;56.50;;;;;;6209573;23;20321;-82
2022/07/15 11:36:24;;;;;;;6.43;2.20;;;26.00;56.30;;;;;;6209143;23;20009;-82
2022/07/15 11:38:51;;;;;;;4.13;2.05;;;25.10;54.00;;;;;;6233231;23;20004;-81
2022/07/15 11:47:00;;;;;;;6.72;2.10;;;26.70;53.60;;;;;;6230029;23;20039;-81
2022/07/15 11:49:29;;;;;;;4.68;2.13;;;27.00;53.90;;;;;;6203692;23;20552;-81
2022/07/15 11:52:00;;;;;;;4.68;2.05;;;27.00;54.30;;;;;;6230006;23;20024;-81
2022/07/15 11:54:31;;;;;;;4.55;2.00;;;26.60;54.40;;;;;;6229774;23;20000;-81
2022/07/15 11:57:03;;;;;;;6.47;2.20;;;25.70;54.40;;;;;;6228989;23;20004;-81
2022/07/15 11:59:30;;;;;;;5.35;2.00;;;25.90;54.90;;;;;;6226573;23;20013;-81
2022/07/15 12:02:12;;;;;;;4.80;2.25;;;25.90;56.00;;;;;;6227137;23;20080;-81
2022/07/15 12:04:41;;;;;;;4.50;2.30;;;26.10;55.50;;;;;;6228525;23;20012;-81
2022/07/15 12:07:07;;;;;;;4.00;2.10;;;26.40;55.20;;;;;;6202333;23;20008;-81
2022/07/15 12:09:43;;;;;;;4.35;2.20;;;26.50;54.70;;;;;;6228241;23;20000;-81
2022/07/15 12:12:10;;;;;;;3.25;2.03;;;26.90;54.60;;;;;;6204167;23;20009;-81
2022/07/15 12:14:39;;;;;;;5.85;2.30;;;27.10;53.50;;;;;;6205965;23;20091;-81
2022/07/15 12:17:07;;;;;;;3.95;2.28;;;27.40;53.60;;;;;;6233965;23;20064;-80
2022/07/15 12:19:34;;;;;;;6.20;2.20;;;27.50;54.20;;;;;;6239012;23;20001;-80
2022/07/15 12:22:10;;;;;;;3.25;2.20;;;27.00;53.00;;;;;;6240617;23;20005;-81
2022/07/15 12:25:25;;;;;;;8.85;2.30;;;27.50;54.00;;;;;;6235835;23;20358;-80
2022/07/15 12:29:06;;;;;;;3.80;2.20;;;27.80;52.60;;;;;;6183485;23;20001;-80
2022/07/15 12:32:06;;;;;;;2.92;1.95;;;27.80;52.40;;;;;;6233049;23;20005;-81
2022/07/15 12:35:53;;;;;;;6.93;2.40;;;27.30;52.70;;;;;;6236699;23;20062;-81
2022/07/15 12:39:40;;;;;;;4.50;2.80;;;27.60;53.30;;;;;;6237732;23;20243;-81
2022/07/15 12:43:35;;;;;;;6.70;3.10;;;27.70;53.20;;;;;;6174618;23;20029;-79
2022/07/15 12:53:33;;;;;;;4.68;2.42;;;28.00;52.10;;;;;;5993852;24;20047;-83
2022/07/15 13:00:55;;;;;;;3.92;2.53;;;28.20;50.70;;;;;;5872371;24;20101;-83
2022/07/15 13:07:46;;;;;;;4.47;2.58;;;27.90;51.10;;;;;;5950622;24;20036;-81
2022/07/15 13:14:52;;;;;;;4.75;2.33;;;27.60;51.50;;;;;;5892401;24;20046;-81
2022/07/15 13:22:03;;;;;;;7.78;3.03;;;27.10;52.10;;;;;;6034253;23;20038;-82
2022/07/15 13:28:49;;;;;;;7.47;3.58;;;27.30;51.80;;;;;;5913596;24;20050;-82
2022/07/15 13:32:34;;;;;;;4.07;2.33;;;25.90;51.10;;;;;;5911771;24;20010;-83
2022/07/15 13:36:06;;;;;;;7.00;2.90;;;26.90;51.80;;;;;;5911166;24;20013;-83
2022/07/15 13:39:56;;;;;;;4.72;2.80;;;26.90;51.80;;;;;;5996061;24;20008;-82
2022/07/15 13:43:20;;;;;;;5.05;2.67;;;26.90;51.60;;;;;;5922817;24;20017;-82
2022/07/15 13:47:17;;;;;;;3.97;2.33;;;27.20;51.20;;;;;;5931727;23;20022;-82
2022/07/15 13:57:58;;;;;;;5.90;2.88;;;27.00;49.40;;;;;;5890035;24;20010;-81
2022/07/15 14:01:46;;;;;;;4.57;2.47;;;27.80;50.00;;;;;;5898051;24;20032;-83
2022/07/15 14:05:22;;;;;;;6.30;2.65;;;27.90;50.40;;;;;;5942418;23;20005;-83
2022/07/15 14:08:53;;;;;;;4.03;2.22;;;28.30;49.50;;;;;;6017767;23;20014;-83
2022/07/15 14:12:25;;;;;;;5.03;2.58;;;28.10;49.70;;;;;;6016798;23;20021;-83
2022/07/15 14:15:52;;;;;;;4.90;2.75;;;28.10;49.70;;;;;;6008115;23;20018;-83
2022/07/15 14:19:07;;;;;;;6.15;3.15;;;28.30;49.50;;;;;;6066503;23;20010;-83